Portada
METAR-TAF:

METAR-TAF

Aeroports :

RAF

Boulmer, Anglaterra

latitud: 55-25-19N, longitud: 1-36-12W, altitud: 24 m

Observació

L'informe es va fer fa 27 minuts, a les 22:50 UTC
Vent 7 kt del Sud
Temperatura 13°C
Humitat 77%
Pressió 1022 hPa
Visibilitat 10 km o més

METAR: EGQM 122250Z AUTO 19007KT 9999 SCT090/// 13/09 Q1022

Hora: 00:17 (23:17 UTC)


TAF: manca

Observacions i pronòstics meteorològics de més de 4000 aeroports (METAR i TAF).

Les estacions disponibles són els punts grocs i vermells al mapa.

Posi el ratolí al punt desitjat per veure el nom de l'estació.

Feu clic per veure les observacions i els pronòstics meteorològics.

Per canviar el mapa: feu clic els botons verds amb una creu de color negre per apropar; al botó verd amb un guió per allunyar la imatge; o en les fletxes verdes per a mapes adjacents.


METAR-TAF: